Theo T — C6SY5 — position and weather

sailwx.info

Track history (hours):
 
Tides and Currents Weather Stations Pressure Air Temp Water Temp Dewpoint Dewpoint Depression Visibility Wind Speed Wind Dir Waves Ship Positions

Theo T

Last reported at 2018-Feb-15 19:50 UTC. Time now 2018-Feb-19 08:01 UTC.
Position N 29°37' W 014°37'.

Length 227 m; draft 12.5 m.

Type: Tanker. MMSI: 311538000.

Date/timePositionNaut miles runAvg speedWind from/ knotsBaromVisibWave heightAir tempDewpointWater temp
2018-Feb-15 19:50N 29°37' W 014°37'513.8
2018-Feb-15 19:30N 29°33' W 014°38'713.7
2018-Feb-15 19:00N 29°26' W 014°39'3213.7
2018-Feb-15 16:39N 28°54' W 014°44'313.6
2018-Feb-15 16:26N 28°51' W 014°44'613.6
2018-Feb-15 16:00N 28°45' W 014°45'713.5
2018-Feb-15 15:28N 28°38' W 014°46'613.1
2018-Feb-15 15:00N 28°32' W 014°47'612.7
2018-Feb-15 14:30N 28°26' W 014°51'713.5
2018-Feb-15 13:58N 28°23' W 014°58'613.5
2018-Feb-15 13:30N 28°19' W 015°04'713.4
2018-Feb-15 13:00N 28°15' W 015°10'713.4
2018-Feb-15 12:30N 28°12' W 015°17'510.5
2018-Feb-15 12:00N 28°09' W 015°22'1 1.4
2018-Feb-15 11:30N 28°08' W 015°22'0 0.8
2018-Feb-15 11:00N 28°08' W 015°21'1 1.1
2018-Feb-15 10:30N 28°08' W 015°21'1 1.7
2018-Feb-15 10:00N 28°07' W 015°20'2 4.2
2018-Feb-15 09:30N 28°06' W 015°19'4 7.7
2018-Feb-15 09:00N 28°03' W 015°15'510.9
2018-Feb-15 08:30N 27°58' W 015°14'3 5.2
2018-Feb-15 08:00N 27°56' W 015°14'3 5.0
2018-Feb-15 07:30N 27°53' W 015°14'3 5.6
2018-Feb-15 07:00N 27°50' W 015°14'611.5
2018-Feb-15 06:30N 27°44' W 015°13'613.1
2018-Feb-15 06:00N 27°38' W 015°12'  
Track history (hours):
 
Tides and Currents Weather Stations Pressure Air Temp Water Temp Dewpoint Dewpoint Depression Visibility Wind Speed Wind Dir Waves Ship Positions

Theo T

Last reported at 2018-Feb-15 19:50 UTC. Time now 2018-Feb-19 08:01 UTC.
Position N 29°37' W 014°37'.

Length 227 m; draft 12.5 m.

Type: Tanker. MMSI: 311538000.

Date/timePositionNaut miles runAvg speedWind from/ knotsBaromVisibWave heightAir tempDewpointWater temp
2018-Feb-15 19:50N 29°37' W 014°37'513.8
2018-Feb-15 19:30N 29°33' W 014°38'713.7
2018-Feb-15 19:00N 29°26' W 014°39'3213.7
2018-Feb-15 16:39N 28°54' W 014°44'313.6
2018-Feb-15 16:26N 28°51' W 014°44'613.6
2018-Feb-15 16:00N 28°45' W 014°45'713.5
2018-Feb-15 15:28N 28°38' W 014°46'613.1
2018-Feb-15 15:00N 28°32' W 014°47'612.7
2018-Feb-15 14:30N 28°26' W 014°51'713.5
2018-Feb-15 13:58N 28°23' W 014°58'613.5
2018-Feb-15 13:30N 28°19' W 015°04'713.4
2018-Feb-15 13:00N 28°15' W 015°10'713.4
2018-Feb-15 12:30N 28°12' W 015°17'510.5
2018-Feb-15 12:00N 28°09' W 015°22'1 1.4
2018-Feb-15 11:30N 28°08' W 015°22'0 0.8
2018-Feb-15 11:00N 28°08' W 015°21'1 1.1
2018-Feb-15 10:30N 28°08' W 015°21'1 1.7
2018-Feb-15 10:00N 28°07' W 015°20'2 4.2
2018-Feb-15 09:30N 28°06' W 015°19'4 7.7
2018-Feb-15 09:00N 28°03' W 015°15'510.9
2018-Feb-15 08:30N 27°58' W 015°14'3 5.2
2018-Feb-15 08:00N 27°56' W 015°14'3 5.0
2018-Feb-15 07:30N 27°53' W 015°14'3 5.6
2018-Feb-15 07:00N 27°50' W 015°14'611.5
2018-Feb-15 06:30N 27°44' W 015°13'613.1
2018-Feb-15 06:00N 27°38' W 015°12'  

Dump ship's entire track history